Washington Island, WI

5:30 AM CDT on June 30, 2015 (GMT -0500)
Rowleys Bay | | Change Station
CLOSE
Current Station
Personal Weather Station
Location: Ellison Bay, WI
Elevation: 574 ft
Nearby Weather Stations

Elev 574 ft 45.22 °N, 87.04 °W | Updated 17 seconds ago

Rain
Rain
56.4 °F
Feels Like 56.4 °F
N
0.0
Wind Variable Wind from North
Gusts 3.9 mph

Today
High -- | Low -- °F
--% Chance of Precip.
Yesterday
High -- | Low -- °F
Precip. -- in
5:02 AM 8:39 PM
Waxing Gibbous, 97% visible
Pressure 29.76 in
Visibility 7.0 miles
Clouds Overcast 2600 ft
Dew Point 52 °F
Humidity 84%
Rainfall in
Snow Depth Not available.
UV 0 out of 12
Pollen 2.50 out of 12
Air Quality Not available.
Flu Activity Sporadic
METAR KESC 300915Z AUTO 32004KT 7SM OVC026 16/14 A2976 RMK AO1

More Conditions Fewer Conditions

Pressure 29.76 in
Visibility 7.0 miles
Clouds Overcast 2600 ft
Dew Point 52 °F
Humidity 84%
Rainfall in
Snow Depth Not available.
UV 0 out of 12
Pollen 2.50 out of 12
Air Quality Not available.
Flu Activity Sporadic
METAR KESC 300915Z AUTO 32004KT 7SM OVC026 16/14 A2976 RMK AO1

More Conditions Fewer Conditions

10-Day Weather Forecast

×

Almanac

Astronomy

Jun. 30, 2015 Rise Set
Actual Time
Civil Twilight
Nautical Twilight
Astronomical Twilight
Moon
Length of Visible Light
Length of Day
Tomorrow will be .
, % of the Moon is Illuminated

Today's Extremes

State Highs State Lows

Community

WunderPhotos

Upload Photos

1,833,982 photos uploaded!

WunderBlogs® & News

Nearby

Air Quality

  Air Quality AQ Index Pollutant
Not available.

Snow Depth

Station Depth Elevation

Earthquake Activity

City Distance Mag. Time & Date
Minimum magnitude displayed is 2.5.

Coastal Water Temperatures

Place Temperature

Stations

Nearby Weather Stations

Station Location Temp. Windchill Dew Point Humidity Wind Precip. Elev Updated Type